sensor_id;sensor_type;location;lat;lon;timestamp;P1;durP1;ratioP1;P2;durP2;ratioP2
62709;SDS011;48770;51.624;5.886;2023-05-10T00:00:11;0.32;;;0.20;;
62709;SDS011;48770;51.624;5.886;2023-05-10T00:02:37;0.10;;;0.10;;
62709;SDS011;48770;51.624;5.886;2023-05-10T00:05:02;0.15;;;0.15;;
62709;SDS011;48770;51.624;5.886;2023-05-10T00:07:28;0.10;;;0.10;;
62709;SDS011;48770;51.624;5.886;2023-05-10T00:09:53;0.10;;;0.10;;
62709;SDS011;48770;51.624;5.886;2023-05-10T00:12:18;0.20;;;0.20;;
62709;SDS011;48770;51.624;5.886;2023-05-10T00:14:44;0.15;;;0.10;;
62709;SDS011;48770;51.624;5.886;2023-05-10T00:17:10;0.20;;;0.20;;
62709;SDS011;48770;51.624;5.886;2023-05-10T00:19:35;0.20;;;0.10;;
62709;SDS011;48770;51.624;5.886;2023-05-10T00:22:00;0.43;;;0.10;;
62709;SDS011;48770;51.624;5.886;2023-05-10T00:24:26;0.10;;;0.10;;
62709;SDS011;48770;51.624;5.886;2023-05-10T00:26:51;0.13;;;0.10;;
62709;SDS011;48770;51.624;5.886;2023-05-10T00:29:17;0.85;;;0.43;;
62709;SDS011;48770;51.624;5.886;2023-05-10T00:31:42;0.10;;;0.10;;
62709;SDS011;48770;51.624;5.886;2023-05-10T00:34:07;0.15;;;0.15;;
62709;SDS011;48770;51.624;5.886;2023-05-10T00:36:33;0.20;;;0.15;;
62709;SDS011;48770;51.624;5.886;2023-05-10T00:38:58;0.10;;;0.10;;
62709;SDS011;48770;51.624;5.886;2023-05-10T00:41:24;0.30;;;0.20;;
62709;SDS011;48770;51.624;5.886;2023-05-10T00:43:49;0.10;;;0.10;;
62709;SDS011;48770;51.624;5.886;2023-05-10T00:46:14;0.30;;;0.20;;
62709;SDS011;48770;51.624;5.886;2023-05-10T00:48:41;0.10;;;0.10;;
62709;SDS011;48770;51.624;5.886;2023-05-10T00:51:07;0.08;;;0.08;;
62709;SDS011;48770;51.624;5.886;2023-05-10T00:53:32;0.20;;;0.10;;
62709;SDS011;48770;51.624;5.886;2023-05-10T00:55:59;0.20;;;0.13;;
62709;SDS011;48770;51.624;5.886;2023-05-10T00:58:26;0.13;;;0.10;;
62709;SDS011;48770;51.624;5.886;2023-05-10T01:00:53;0.10;;;0.10;;
62709;SDS011;48770;51.624;5.886;2023-05-10T01:03:20;0.98;;;0.10;;
62709;SDS011;48770;51.624;5.886;2023-05-10T01:05:45;0.10;;;0.10;;
62709;SDS011;48770;51.624;5.886;2023-05-10T01:08:11;0.30;;;0.20;;
62709;SDS011;48770;51.624;5.886;2023-05-10T01:10:36;0.20;;;0.10;;
62709;SDS011;48770;51.624;5.886;2023-05-10T01:13:02;0.10;;;0.10;;
62709;SDS011;48770;51.624;5.886;2023-05-10T01:15:28;0.10;;;0.10;;
62709;SDS011;48770;51.624;5.886;2023-05-10T01:17:54;0.10;;;0.10;;
62709;SDS011;48770;51.624;5.886;2023-05-10T01:20:21;0.20;;;0.17;;
62709;SDS011;48770;51.624;5.886;2023-05-10T01:22:56;0.10;;;0.10;;
62709;SDS011;48770;51.624;5.886;2023-05-10T01:28:25;0.20;;;0.20;;
62709;SDS011;48770;51.624;5.886;2023-05-10T01:34:02;0.10;;;0.10;;
62709;SDS011;48770;51.624;5.886;2023-05-10T01:36:35;0.10;;;0.10;;
62709;SDS011;48770;51.624;5.886;2023-05-10T01:39:11;0.17;;;0.10;;
62709;SDS011;48770;51.624;5.886;2023-05-10T01:41:46;0.10;;;0.10;;
62709;SDS011;48770;51.624;5.886;2023-05-10T01:44:23;0.30;;;0.20;;
62709;SDS011;48770;51.624;5.886;2023-05-10T01:47:02;0.30;;;0.20;;
62709;SDS011;48770;51.624;5.886;2023-05-10T01:49:39;0.10;;;0.10;;
62709;SDS011;48770;51.624;5.886;2023-05-10T01:52:15;0.10;;;0.10;;
62709;SDS011;48770;51.624;5.886;2023-05-10T01:54:52;0.10;;;0.10;;
62709;SDS011;48770;51.624;5.886;2023-05-10T01:57:21;1.95;;;0.10;;
62709;SDS011;48770;51.624;5.886;2023-05-10T01:59:50;0.20;;;0.20;;
62709;SDS011;48770;51.624;5.886;2023-05-10T02:02:17;0.20;;;0.10;;
62709;SDS011;48770;51.624;5.886;2023-05-10T02:04:45;0.15;;;0.15;;
62709;SDS011;48770;51.624;5.886;2023-05-10T02:07:12;0.77;;;0.30;;
62709;SDS011;48770;51.624;5.886;2023-05-10T02:09:39;0.35;;;0.20;;
62709;SDS011;48770;51.624;5.886;2023-05-10T02:12:07;0.40;;;0.20;;
62709;SDS011;48770;51.624;5.886;2023-05-10T02:14:35;0.30;;;0.20;;
62709;SDS011;48770;51.624;5.886;2023-05-10T02:17:05;0.30;;;0.10;;
62709;SDS011;48770;51.624;5.886;2023-05-10T02:19:32;0.28;;;0.20;;
62709;SDS011;48770;51.624;5.886;2023-05-10T02:22:00;0.13;;;0.13;;
62709;SDS011;48770;51.624;5.886;2023-05-10T02:24:28;0.10;;;0.10;;
62709;SDS011;48770;51.624;5.886;2023-05-10T02:26:54;0.20;;;0.20;;
62709;SDS011;48770;51.624;5.886;2023-05-10T02:29:21;0.10;;;0.10;;
62709;SDS011;48770;51.624;5.886;2023-05-10T02:31:48;0.20;;;0.10;;
62709;SDS011;48770;51.624;5.886;2023-05-10T02:34:17;0.20;;;0.15;;
62709;SDS011;48770;51.624;5.886;2023-05-10T02:36:44;0.20;;;0.20;;
62709;SDS011;48770;51.624;5.886;2023-05-10T02:39:09;0.50;;;0.30;;
62709;SDS011;48770;51.624;5.886;2023-05-10T02:41:38;0.60;;;0.30;;
62709;SDS011;48770;51.624;5.886;2023-05-10T02:44:06;0.50;;;0.40;;
62709;SDS011;48770;51.624;5.886;2023-05-10T02:46:34;0.20;;;0.20;;
62709;SDS011;48770;51.624;5.886;2023-05-10T02:49:00;0.40;;;0.30;;
62709;SDS011;48770;51.624;5.886;2023-05-10T02:51:26;0.20;;;0.20;;
62709;SDS011;48770;51.624;5.886;2023-05-10T02:53:56;0.50;;;0.40;;
62709;SDS011;48770;51.624;5.886;2023-05-10T02:56:28;0.38;;;0.30;;
62709;SDS011;48770;51.624;5.886;2023-05-10T02:58:58;0.30;;;0.30;;
62709;SDS011;48770;51.624;5.886;2023-05-10T03:01:23;0.40;;;0.40;;
62709;SDS011;48770;51.624;5.886;2023-05-10T03:03:48;0.30;;;0.30;;
62709;SDS011;48770;51.624;5.886;2023-05-10T03:06:14;0.35;;;0.32;;
62709;SDS011;48770;51.624;5.886;2023-05-10T03:08:39;0.35;;;0.30;;
62709;SDS011;48770;51.624;5.886;2023-05-10T03:13:39;0.65;;;0.32;;
62709;SDS011;48770;51.624;5.886;2023-05-10T03:16:06;0.60;;;0.60;;
62709;SDS011;48770;51.624;5.886;2023-05-10T03:18:45;0.65;;;0.50;;
62709;SDS011;48770;51.624;5.886;2023-05-10T03:21:31;0.40;;;0.30;;
62709;SDS011;48770;51.624;5.886;2023-05-10T03:24:07;0.50;;;0.50;;
62709;SDS011;48770;51.624;5.886;2023-05-10T03:26:33;1.60;;;0.50;;
62709;SDS011;48770;51.624;5.886;2023-05-10T03:29:00;0.55;;;0.43;;
62709;SDS011;48770;51.624;5.886;2023-05-10T03:31:26;0.40;;;0.40;;
62709;SDS011;48770;51.624;5.886;2023-05-10T03:33:52;0.57;;;0.43;;
62709;SDS011;48770;51.624;5.886;2023-05-10T03:36:18;0.57;;;0.40;;
62709;SDS011;48770;51.624;5.886;2023-05-10T03:38:44;0.98;;;0.63;;
62709;SDS011;48770;51.624;5.886;2023-05-10T03:41:09;0.60;;;0.60;;
62709;SDS011;48770;51.624;5.886;2023-05-10T03:43:35;0.60;;;0.57;;
62709;SDS011;48770;51.624;5.886;2023-05-10T03:46:04;0.60;;;0.55;;
62709;SDS011;48770;51.624;5.886;2023-05-10T03:48:30;0.70;;;0.60;;
62709;SDS011;48770;51.624;5.886;2023-05-10T03:50:56;0.65;;;0.60;;
62709;SDS011;48770;51.624;5.886;2023-05-10T03:53:21;0.80;;;0.60;;
62709;SDS011;48770;51.624;5.886;2023-05-10T03:55:48;0.50;;;0.50;;
62709;SDS011;48770;51.624;5.886;2023-05-10T03:58:13;0.82;;;0.73;;
62709;SDS011;48770;51.624;5.886;2023-05-10T04:00:38;0.70;;;0.70;;
62709;SDS011;48770;51.624;5.886;2023-05-10T04:03:08;0.60;;;0.50;;
62709;SDS011;48770;51.624;5.886;2023-05-10T04:05:34;0.70;;;0.60;;
62709;SDS011;48770;51.624;5.886;2023-05-10T04:08:00;0.60;;;0.60;;
62709;SDS011;48770;51.624;5.886;2023-05-10T04:10:25;0.90;;;0.50;;
62709;SDS011;48770;51.624;5.886;2023-05-10T04:12:50;1.17;;;0.60;;
62709;SDS011;48770;51.624;5.886;2023-05-10T04:15:16;0.70;;;0.60;;
62709;SDS011;48770;51.624;5.886;2023-05-10T04:17:41;0.95;;;0.60;;
62709;SDS011;48770;51.624;5.886;2023-05-10T04:20:07;1.02;;;0.80;;
62709;SDS011;48770;51.624;5.886;2023-05-10T04:22:33;0.98;;;0.80;;
62709;SDS011;48770;51.624;5.886;2023-05-10T04:24:58;0.80;;;0.80;;
62709;SDS011;48770;51.624;5.886;2023-05-10T04:27:24;0.88;;;0.75;;
62709;SDS011;48770;51.624;5.886;2023-05-10T04:29:49;0.80;;;0.80;;
62709;SDS011;48770;51.624;5.886;2023-05-10T04:32:15;0.95;;;0.75;;
62709;SDS011;48770;51.624;5.886;2023-05-10T04:34:42;1.13;;;0.93;;
62709;SDS011;48770;51.624;5.886;2023-05-10T04:37:08;1.13;;;0.90;;
62709;SDS011;48770;51.624;5.886;2023-05-10T04:39:33;0.75;;;0.75;;
62709;SDS011;48770;51.624;5.886;2023-05-10T04:41:58;1.05;;;1.00;;
62709;SDS011;48770;51.624;5.886;2023-05-10T04:44:23;1.02;;;0.80;;
62709;SDS011;48770;51.624;5.886;2023-05-10T04:46:49;1.00;;;0.90;;
62709;SDS011;48770;51.624;5.886;2023-05-10T04:49:14;0.70;;;0.70;;
62709;SDS011;48770;51.624;5.886;2023-05-10T04:51:40;1.10;;;1.00;;
62709;SDS011;48770;51.624;5.886;2023-05-10T04:54:05;1.25;;;1.10;;
62709;SDS011;48770;51.624;5.886;2023-05-10T04:56:30;1.08;;;0.90;;
62709;SDS011;48770;51.624;5.886;2023-05-10T04:58:56;0.93;;;0.77;;
62709;SDS011;48770;51.624;5.886;2023-05-10T05:01:21;1.00;;;0.90;;
62709;SDS011;48770;51.624;5.886;2023-05-10T05:03:48;0.77;;;0.75;;
62709;SDS011;48770;51.624;5.886;2023-05-10T05:06:13;1.30;;;1.20;;
62709;SDS011;48770;51.624;5.886;2023-05-10T05:08:38;0.63;;;0.60;;
62709;SDS011;48770;51.624;5.886;2023-05-10T05:11:04;0.80;;;0.77;;
62709;SDS011;48770;51.624;5.886;2023-05-10T05:13:29;2.70;;;0.90;;
62709;SDS011;48770;51.624;5.886;2023-05-10T05:15:55;0.95;;;0.90;;
62709;SDS011;48770;51.624;5.886;2023-05-10T05:18:20;1.30;;;1.20;;
62709;SDS011;48770;51.624;5.886;2023-05-10T05:20:45;1.02;;;0.93;;
62709;SDS011;48770;51.624;5.886;2023-05-10T05:23:11;0.90;;;0.90;;
62709;SDS011;48770;51.624;5.886;2023-05-10T05:25:36;0.90;;;0.90;;
62709;SDS011;48770;51.624;5.886;2023-05-10T05:28:01;1.17;;;1.08;;
62709;SDS011;48770;51.624;5.886;2023-05-10T05:30:27;1.13;;;1.02;;
62709;SDS011;48770;51.624;5.886;2023-05-10T05:32:52;1.20;;;1.10;;
62709;SDS011;48770;51.624;5.886;2023-05-10T05:35:17;1.20;;;1.10;;
62709;SDS011;48770;51.624;5.886;2023-05-10T05:37:43;1.20;;;1.10;;
62709;SDS011;48770;51.624;5.886;2023-05-10T05:40:11;1.00;;;0.90;;
62709;SDS011;48770;51.624;5.886;2023-05-10T05:42:37;1.20;;;1.00;;
62709;SDS011;48770;51.624;5.886;2023-05-10T05:45:03;1.20;;;1.00;;
62709;SDS011;48770;51.624;5.886;2023-05-10T05:47:29;0.93;;;0.90;;
62709;SDS011;48770;51.624;5.886;2023-05-10T05:49:54;0.82;;;0.80;;
62709;SDS011;48770;51.624;5.886;2023-05-10T05:52:20;1.13;;;1.00;;
62709;SDS011;48770;51.624;5.886;2023-05-10T05:54:46;1.10;;;1.00;;
62709;SDS011;48770;51.624;5.886;2023-05-10T05:57:11;1.10;;;1.00;;
62709;SDS011;48770;51.624;5.886;2023-05-10T05:59:36;1.30;;;1.17;;
62709;SDS011;48770;51.624;5.886;2023-05-10T06:02:06;1.05;;;1.00;;
62709;SDS011;48770;51.624;5.886;2023-05-10T06:04:32;1.33;;;1.10;;
62709;SDS011;48770;51.624;5.886;2023-05-10T06:06:57;1.27;;;1.17;;
62709;SDS011;48770;51.624;5.886;2023-05-10T06:09:23;1.08;;;0.98;;
62709;SDS011;48770;51.624;5.886;2023-05-10T06:11:49;0.93;;;0.85;;
62709;SDS011;48770;51.624;5.886;2023-05-10T06:14:14;1.30;;;1.10;;
62709;SDS011;48770;51.624;5.886;2023-05-10T06:16:40;1.77;;;1.10;;
62709;SDS011;48770;51.624;5.886;2023-05-10T06:19:05;1.33;;;1.08;;
62709;SDS011;48770;51.624;5.886;2023-05-10T06:21:31;1.30;;;1.20;;
62709;SDS011;48770;51.624;5.886;2023-05-10T06:23:56;2.00;;;1.20;;
62709;SDS011;48770;51.624;5.886;2023-05-10T06:26:22;1.50;;;1.20;;
62709;SDS011;48770;51.624;5.886;2023-05-10T06:28:47;1.45;;;1.15;;
62709;SDS011;48770;51.624;5.886;2023-05-10T06:31:12;1.33;;;1.20;;
62709;SDS011;48770;51.624;5.886;2023-05-10T06:33:38;1.20;;;1.10;;
62709;SDS011;48770;51.624;5.886;2023-05-10T06:36:03;0.70;;;0.70;;
62709;SDS011;48770;51.624;5.886;2023-05-10T06:38:28;1.08;;;0.77;;
62709;SDS011;48770;51.624;5.886;2023-05-10T06:40:54;1.40;;;1.20;;
62709;SDS011;48770;51.624;5.886;2023-05-10T06:43:19;1.65;;;0.90;;
62709;SDS011;48770;51.624;5.886;2023-05-10T06:45:45;0.80;;;0.75;;
62709;SDS011;48770;51.624;5.886;2023-05-10T06:48:10;1.30;;;1.10;;
62709;SDS011;48770;51.624;5.886;2023-05-10T06:50:35;1.10;;;1.00;;
62709;SDS011;48770;51.624;5.886;2023-05-10T06:53:01;0.90;;;0.90;;
62709;SDS011;48770;51.624;5.886;2023-05-10T06:55:29;1.23;;;1.13;;
62709;SDS011;48770;51.624;5.886;2023-05-10T06:57:54;1.15;;;1.00;;
62709;SDS011;48770;51.624;5.886;2023-05-10T07:00:19;1.10;;;1.00;;
62709;SDS011;48770;51.624;5.886;2023-05-10T07:02:45;1.05;;;0.95;;
62709;SDS011;48770;51.624;5.886;2023-05-10T07:05:11;1.20;;;1.10;;
62709;SDS011;48770;51.624;5.886;2023-05-10T07:07:37;1.70;;;1.08;;
62709;SDS011;48770;51.624;5.886;2023-05-10T07:10:02;1.17;;;1.08;;
62709;SDS011;48770;51.624;5.886;2023-05-10T07:12:28;0.98;;;0.90;;
62709;SDS011;48770;51.624;5.886;2023-05-10T07:14:53;1.20;;;1.10;;
62709;SDS011;48770;51.624;5.886;2023-05-10T07:17:18;1.00;;;0.90;;
62709;SDS011;48770;51.624;5.886;2023-05-10T07:19:44;0.95;;;0.88;;
62709;SDS011;48770;51.624;5.886;2023-05-10T07:22:09;1.52;;;1.08;;
62709;SDS011;48770;51.624;5.886;2023-05-10T07:24:35;1.23;;;0.98;;
62709;SDS011;48770;51.624;5.886;2023-05-10T07:27:00;1.40;;;1.10;;
62709;SDS011;48770;51.624;5.886;2023-05-10T07:29:26;1.30;;;1.20;;
62709;SDS011;48770;51.624;5.886;2023-05-10T07:31:51;0.82;;;0.82;;
62709;SDS011;48770;51.624;5.886;2023-05-10T07:34:16;0.80;;;0.80;;
62709;SDS011;48770;51.624;5.886;2023-05-10T07:36:42;0.75;;;0.75;;
62709;SDS011;48770;51.624;5.886;2023-05-10T07:39:07;1.45;;;0.80;;
62709;SDS011;48770;51.624;5.886;2023-05-10T07:41:33;0.77;;;0.77;;
62709;SDS011;48770;51.624;5.886;2023-05-10T07:43:58;0.95;;;0.82;;
62709;SDS011;48770;51.624;5.886;2023-05-10T07:46:23;1.02;;;1.00;;
62709;SDS011;48770;51.624;5.886;2023-05-10T07:48:49;1.02;;;0.90;;
62709;SDS011;48770;51.624;5.886;2023-05-10T07:51:14;1.05;;;0.90;;
62709;SDS011;48770;51.624;5.886;2023-05-10T07:53:39;1.27;;;1.02;;
62709;SDS011;48770;51.624;5.886;2023-05-10T07:56:21;0.80;;;0.80;;
62709;SDS011;48770;51.624;5.886;2023-05-10T07:58:57;0.70;;;0.70;;
62709;SDS011;48770;51.624;5.886;2023-05-10T08:01:24;0.90;;;0.80;;
62709;SDS011;48770;51.624;5.886;2023-05-10T08:03:50;0.88;;;0.80;;
62709;SDS011;48770;51.624;5.886;2023-05-10T08:06:16;1.00;;;0.90;;
62709;SDS011;48770;51.624;5.886;2023-05-10T08:08:42;0.55;;;0.55;;
62709;SDS011;48770;51.624;5.886;2023-05-10T08:11:07;1.13;;;0.80;;
62709;SDS011;48770;51.624;5.886;2023-05-10T08:13:33;0.90;;;0.80;;
62709;SDS011;48770;51.624;5.886;2023-05-10T08:15:59;1.02;;;0.88;;
62709;SDS011;48770;51.624;5.886;2023-05-10T08:18:24;0.65;;;0.65;;
62709;SDS011;48770;51.624;5.886;2023-05-10T08:20:49;0.95;;;0.85;;
62709;SDS011;48770;51.624;5.886;2023-05-10T08:23:15;1.15;;;0.88;;
62709;SDS011;48770;51.624;5.886;2023-05-10T08:25:40;0.75;;;0.75;;
62709;SDS011;48770;51.624;5.886;2023-05-10T08:28:06;1.00;;;0.82;;
62709;SDS011;48770;51.624;5.886;2023-05-10T08:30:31;0.75;;;0.75;;
62709;SDS011;48770;51.624;5.886;2023-05-10T08:32:57;0.80;;;0.80;;
62709;SDS011;48770;51.624;5.886;2023-05-10T08:35:22;0.80;;;0.80;;
62709;SDS011;48770;51.624;5.886;2023-05-10T08:37:47;0.90;;;0.75;;
62709;SDS011;48770;51.624;5.886;2023-05-10T08:40:13;0.68;;;0.68;;
62709;SDS011;48770;51.624;5.886;2023-05-10T08:42:40;0.75;;;0.75;;
62709;SDS011;48770;51.624;5.886;2023-05-10T08:45:10;0.70;;;0.70;;
62709;SDS011;48770;51.624;5.886;2023-05-10T08:47:36;0.70;;;0.60;;
62709;SDS011;48770;51.624;5.886;2023-05-10T08:50:03;0.75;;;0.73;;
62709;SDS011;48770;51.624;5.886;2023-05-10T08:52:28;1.15;;;0.88;;
62709;SDS011;48770;51.624;5.886;2023-05-10T08:54:55;1.10;;;1.00;;
62709;SDS011;48770;51.624;5.886;2023-05-10T08:57:21;1.13;;;1.02;;
62709;SDS011;48770;51.624;5.886;2023-05-10T08:59:46;0.90;;;0.80;;
62709;SDS011;48770;51.624;5.886;2023-05-10T09:02:12;1.30;;;0.90;;
62709;SDS011;48770;51.624;5.886;2023-05-10T09:04:38;0.90;;;0.80;;
62709;SDS011;48770;51.624;5.886;2023-05-10T09:07:03;0.70;;;0.70;;
62709;SDS011;48770;51.624;5.886;2023-05-10T09:09:29;1.13;;;1.02;;
62709;SDS011;48770;51.624;5.886;2023-05-10T09:11:54;0.88;;;0.80;;
62709;SDS011;48770;51.624;5.886;2023-05-10T09:14:20;1.02;;;0.85;;
62709;SDS011;48770;51.624;5.886;2023-05-10T09:16:48;1.10;;;1.00;;
62709;SDS011;48770;51.624;5.886;2023-05-10T09:19:13;1.00;;;0.88;;
62709;SDS011;48770;51.624;5.886;2023-05-10T09:21:38;0.80;;;0.65;;
62709;SDS011;48770;51.624;5.886;2023-05-10T09:24:04;1.08;;;0.98;;
62709;SDS011;48770;51.624;5.886;2023-05-10T09:26:31;1.17;;;0.90;;
62709;SDS011;48770;51.624;5.886;2023-05-10T09:28:57;1.13;;;1.02;;
62709;SDS011;48770;51.624;5.886;2023-05-10T09:31:24;1.30;;;1.20;;
62709;SDS011;48770;51.624;5.886;2023-05-10T09:34:09;0.90;;;0.90;;
62709;SDS011;48770;51.624;5.886;2023-05-10T09:36:35;1.25;;;1.15;;
62709;SDS011;48770;51.624;5.886;2023-05-10T09:39:00;1.33;;;0.85;;
62709;SDS011;48770;51.624;5.886;2023-05-10T09:41:25;1.15;;;1.08;;
62709;SDS011;48770;51.624;5.886;2023-05-10T09:43:55;0.60;;;0.60;;
62709;SDS011;48770;51.624;5.886;2023-05-10T09:46:21;1.08;;;0.85;;
62709;SDS011;48770;51.624;5.886;2023-05-10T09:48:47;0.88;;;0.88;;
62709;SDS011;48770;51.624;5.886;2023-05-10T09:51:23;1.23;;;0.82;;
62709;SDS011;48770;51.624;5.886;2023-05-10T09:56:38;0.73;;;0.73;;
62709;SDS011;48770;51.624;5.886;2023-05-10T09:59:05;0.85;;;0.85;;
62709;SDS011;48770;51.624;5.886;2023-05-10T10:01:32;1.13;;;0.98;;
62709;SDS011;48770;51.624;5.886;2023-05-10T10:03:58;1.00;;;0.90;;
62709;SDS011;48770;51.624;5.886;2023-05-10T10:06:24;1.17;;;1.08;;
62709;SDS011;48770;51.624;5.886;2023-05-10T10:08:50;1.30;;;1.20;;
62709;SDS011;48770;51.624;5.886;2023-05-10T10:11:16;1.25;;;1.05;;
62709;SDS011;48770;51.624;5.886;2023-05-10T10:13:41;1.10;;;1.00;;
62709;SDS011;48770;51.624;5.886;2023-05-10T10:16:07;1.30;;;0.85;;
62709;SDS011;48770;51.624;5.886;2023-05-10T10:18:33;0.98;;;0.90;;
62709;SDS011;48770;51.624;5.886;2023-05-10T10:21:03;1.27;;;0.90;;
62709;SDS011;48770;51.624;5.886;2023-05-10T10:23:31;1.08;;;1.00;;
62709;SDS011;48770;51.624;5.886;2023-05-10T10:25:56;1.10;;;0.80;;
62709;SDS011;48770;51.624;5.886;2023-05-10T10:31:21;0.90;;;0.80;;
62709;SDS011;48770;51.624;5.886;2023-05-10T10:33:56;1.15;;;0.90;;
62709;SDS011;48770;51.624;5.886;2023-05-10T10:36:26;1.10;;;0.90;;
62709;SDS011;48770;51.624;5.886;2023-05-10T10:38:59;0.80;;;0.80;;
62709;SDS011;48770;51.624;5.886;2023-05-10T10:42:08;0.82;;;0.82;;
62709;SDS011;48770;51.624;5.886;2023-05-10T10:47:03;0.95;;;0.88;;
62709;SDS011;48770;51.624;5.886;2023-05-10T10:49:43;1.30;;;0.95;;
62709;SDS011;48770;51.624;5.886;2023-05-10T10:52:23;1.20;;;0.82;;
62709;SDS011;48770;51.624;5.886;2023-05-10T10:55:01;0.60;;;0.60;;
62709;SDS011;48770;51.624;5.886;2023-05-10T10:57:28;0.77;;;0.75;;
62709;SDS011;48770;51.624;5.886;2023-05-10T11:02:47;1.08;;;0.57;;
62709;SDS011;48770;51.624;5.886;2023-05-10T11:07:53;0.80;;;0.80;;
62709;SDS011;48770;51.624;5.886;2023-05-10T11:10:19;0.90;;;0.68;;
62709;SDS011;48770;51.624;5.886;2023-05-10T11:12:52;0.85;;;0.65;;
62709;SDS011;48770;51.624;5.886;2023-05-10T11:15:34;0.90;;;0.70;;
62709;SDS011;48770;51.624;5.886;2023-05-10T11:18:19;0.70;;;0.63;;
62709;SDS011;48770;51.624;5.886;2023-05-10T11:20:55;2.05;;;0.85;;
62709;SDS011;48770;51.624;5.886;2023-05-10T11:23:32;0.60;;;0.60;;
62709;SDS011;48770;51.624;5.886;2023-05-10T11:26:13;0.98;;;0.68;;
62709;SDS011;48770;51.624;5.886;2023-05-10T11:28:42;0.75;;;0.63;;
62709;SDS011;48770;51.624;5.886;2023-05-10T11:31:15;0.70;;;0.70;;
62709;SDS011;48770;51.624;5.886;2023-05-10T11:33:45;0.80;;;0.80;;
62709;SDS011;48770;51.624;5.886;2023-05-10T11:38:48;0.60;;;0.60;;
62709;SDS011;48770;51.624;5.886;2023-05-10T11:41:14;1.15;;;0.88;;
62709;SDS011;48770;51.624;5.886;2023-05-10T11:43:41;0.80;;;0.80;;
62709;SDS011;48770;51.624;5.886;2023-05-10T11:46:07;0.95;;;0.70;;
62709;SDS011;48770;51.624;5.886;2023-05-10T11:48:35;0.93;;;0.70;;
62709;SDS011;48770;51.624;5.886;2023-05-10T11:51:01;0.77;;;0.70;;
62709;SDS011;48770;51.624;5.886;2023-05-10T11:53:27;0.70;;;0.60;;
62709;SDS011;48770;51.624;5.886;2023-05-10T11:55:54;0.80;;;0.77;;
62709;SDS011;48770;51.624;5.886;2023-05-10T11:58:19;0.77;;;0.65;;
62709;SDS011;48770;51.624;5.886;2023-05-10T12:00:46;1.27;;;0.88;;
62709;SDS011;48770;51.624;5.886;2023-05-10T12:03:12;1.13;;;0.60;;
62709;SDS011;48770;51.624;5.886;2023-05-10T12:05:38;0.50;;;0.50;;
62709;SDS011;48770;51.624;5.886;2023-05-10T12:08:13;0.50;;;0.50;;
62709;SDS011;48770;51.624;5.886;2023-05-10T12:10:40;0.93;;;0.80;;
62709;SDS011;48770;51.624;5.886;2023-05-10T12:13:05;0.65;;;0.55;;
62709;SDS011;48770;51.624;5.886;2023-05-10T12:15:35;1.00;;;0.82;;
62709;SDS011;48770;51.624;5.886;2023-05-10T12:18:00;0.90;;;0.70;;
62709;SDS011;48770;51.624;5.886;2023-05-10T12:20:27;0.73;;;0.70;;
62709;SDS011;48770;51.624;5.886;2023-05-10T12:22:53;0.82;;;0.68;;
62709;SDS011;48770;51.624;5.886;2023-05-10T12:25:23;0.60;;;0.60;;
62709;SDS011;48770;51.624;5.886;2023-05-10T12:27:55;0.60;;;0.60;;
62709;SDS011;48770;51.624;5.886;2023-05-10T12:30:25;0.60;;;0.60;;
62709;SDS011;48770;51.624;5.886;2023-05-10T12:33:15;0.57;;;0.57;;
62709;SDS011;48770;51.624;5.886;2023-05-10T12:35:52;0.68;;;0.68;;
62709;SDS011;48770;51.624;5.886;2023-05-10T12:38:25;0.70;;;0.70;;
62709;SDS011;48770;51.624;5.886;2023-05-10T12:40:57;0.60;;;0.60;;
62709;SDS011;48770;51.624;5.886;2023-05-10T12:43:24;0.70;;;0.60;;
62709;SDS011;48770;51.624;5.886;2023-05-10T12:45:49;0.60;;;0.57;;
62709;SDS011;48770;51.624;5.886;2023-05-10T12:48:15;0.57;;;0.57;;
62709;SDS011;48770;51.624;5.886;2023-05-10T12:50:40;0.55;;;0.50;;
62709;SDS011;48770;51.624;5.886;2023-05-10T12:53:06;0.80;;;0.60;;
62709;SDS011;48770;51.624;5.886;2023-05-10T12:55:31;0.60;;;0.50;;
62709;SDS011;48770;51.624;5.886;2023-05-10T12:57:56;0.70;;;0.50;;
62709;SDS011;48770;51.624;5.886;2023-05-10T13:00:22;0.75;;;0.60;;
62709;SDS011;48770;51.624;5.886;2023-05-10T13:02:47;0.95;;;0.68;;
62709;SDS011;48770;51.624;5.886;2023-05-10T13:05:12;0.60;;;0.50;;
62709;SDS011;48770;51.624;5.886;2023-05-10T13:07:38;0.50;;;0.50;;
62709;SDS011;48770;51.624;5.886;2023-05-10T13:10:04;0.70;;;0.70;;
62709;SDS011;48770;51.624;5.886;2023-05-10T13:12:31;0.40;;;0.40;;
62709;SDS011;48770;51.624;5.886;2023-05-10T13:14:56;1.20;;;0.60;;
62709;SDS011;48770;51.624;5.886;2023-05-10T13:17:21;0.40;;;0.40;;
62709;SDS011;48770;51.624;5.886;2023-05-10T13:19:47;0.75;;;0.60;;
62709;SDS011;48770;51.624;5.886;2023-05-10T13:22:12;0.77;;;0.50;;
62709;SDS011;48770;51.624;5.886;2023-05-10T13:24:38;0.60;;;0.60;;
62709;SDS011;48770;51.624;5.886;2023-05-10T13:27:03;0.63;;;0.63;;
62709;SDS011;48770;51.624;5.886;2023-05-10T13:29:28;0.40;;;0.40;;
62709;SDS011;48770;51.624;5.886;2023-05-10T13:31:54;0.68;;;0.50;;
62709;SDS011;48770;51.624;5.886;2023-05-10T13:34:19;0.60;;;0.60;;
62709;SDS011;48770;51.624;5.886;2023-05-10T13:36:45;0.65;;;0.55;;
62709;SDS011;48770;51.624;5.886;2023-05-10T13:39:11;0.70;;;0.65;;
62709;SDS011;48770;51.624;5.886;2023-05-10T13:41:37;0.65;;;0.52;;
62709;SDS011;48770;51.624;5.886;2023-05-10T13:44:02;0.60;;;0.40;;
62709;SDS011;48770;51.624;5.886;2023-05-10T13:46:28;1.25;;;0.90;;
62709;SDS011;48770;51.624;5.886;2023-05-10T13:48:54;0.50;;;0.50;;
62709;SDS011;48770;51.624;5.886;2023-05-10T13:51:20;0.60;;;0.60;;
62709;SDS011;48770;51.624;5.886;2023-05-10T13:53:45;0.68;;;0.68;;
62709;SDS011;48770;51.624;5.886;2023-05-10T13:56:12;0.40;;;0.38;;
62709;SDS011;48770;51.624;5.886;2023-05-10T13:58:37;0.68;;;0.68;;
62709;SDS011;48770;51.624;5.886;2023-05-10T14:01:03;0.50;;;0.50;;
62709;SDS011;48770;51.624;5.886;2023-05-10T14:03:29;0.60;;;0.60;;
62709;SDS011;48770;51.624;5.886;2023-05-10T14:05:55;0.63;;;0.60;;
62709;SDS011;48770;51.624;5.886;2023-05-10T14:08:20;0.60;;;0.60;;
62709;SDS011;48770;51.624;5.886;2023-05-10T14:10:46;0.60;;;0.50;;
62709;SDS011;48770;51.624;5.886;2023-05-10T14:13:11;0.73;;;0.63;;
62709;SDS011;48770;51.624;5.886;2023-05-10T14:15:37;0.50;;;0.45;;
62709;SDS011;48770;51.624;5.886;2023-05-10T14:18:02;0.50;;;0.50;;
62709;SDS011;48770;51.624;5.886;2023-05-10T14:20:28;0.40;;;0.40;;
62709;SDS011;48770;51.624;5.886;2023-05-10T14:22:53;0.40;;;0.40;;
62709;SDS011;48770;51.624;5.886;2023-05-10T14:25:19;0.40;;;0.40;;
62709;SDS011;48770;51.624;5.886;2023-05-10T14:27:44;0.30;;;0.30;;
62709;SDS011;48770;51.624;5.886;2023-05-10T14:30:10;1.05;;;0.50;;
62709;SDS011;48770;51.624;5.886;2023-05-10T14:32:35;0.63;;;0.55;;
62709;SDS011;48770;51.624;5.886;2023-05-10T14:35:01;0.50;;;0.50;;
62709;SDS011;48770;51.624;5.886;2023-05-10T14:37:27;0.40;;;0.40;;
62709;SDS011;48770;51.624;5.886;2023-05-10T14:39:52;0.47;;;0.47;;
62709;SDS011;48770;51.624;5.886;2023-05-10T14:42:18;0.90;;;0.60;;
62709;SDS011;48770;51.624;5.886;2023-05-10T14:44:44;0.60;;;0.50;;
62709;SDS011;48770;51.624;5.886;2023-05-10T14:47:09;0.50;;;0.47;;
62709;SDS011;48770;51.624;5.886;2023-05-10T14:49:35;0.38;;;0.38;;
62709;SDS011;48770;51.624;5.886;2023-05-10T14:52:00;0.50;;;0.40;;
62709;SDS011;48770;51.624;5.886;2023-05-10T14:54:25;0.60;;;0.60;;
62709;SDS011;48770;51.624;5.886;2023-05-10T14:56:51;0.60;;;0.60;;
62709;SDS011;48770;51.624;5.886;2023-05-10T14:59:16;0.43;;;0.43;;
62709;SDS011;48770;51.624;5.886;2023-05-10T15:01:41;1.85;;;0.50;;
62709;SDS011;48770;51.624;5.886;2023-05-10T15:04:07;0.50;;;0.50;;
62709;SDS011;48770;51.624;5.886;2023-05-10T15:06:34;0.60;;;0.40;;
62709;SDS011;48770;51.624;5.886;2023-05-10T15:09:00;0.30;;;0.25;;
62709;SDS011;48770;51.624;5.886;2023-05-10T15:11:26;0.50;;;0.50;;